createdAt,value
2022-09-01T00:02:02.817Z,100.00
2022-09-01T00:04:29.501Z,100.00
2022-09-01T00:06:56.421Z,100.00
2022-09-01T00:09:23.693Z,100.00
2022-09-01T00:11:54.438Z,100.00
2022-09-01T00:14:30.099Z,100.00
2022-09-01T00:17:03.204Z,100.00
2022-09-01T00:19:30.288Z,100.00
2022-09-01T00:21:57.533Z,100.00
2022-09-01T00:24:26.402Z,100.00
2022-09-01T00:26:54.940Z,100.00
2022-09-01T00:29:22.646Z,100.00
2022-09-01T00:31:50.593Z,100.00
2022-09-01T00:34:17.634Z,100.00
2022-09-01T00:36:44.707Z,100.00
2022-09-01T00:39:12.323Z,100.00
2022-09-01T00:41:42.767Z,100.00
2022-09-01T00:44:13.702Z,100.00
2022-09-01T00:46:55.099Z,100.00
2022-09-01T00:49:45.056Z,100.00
2022-09-01T00:52:33.921Z,100.00
2022-09-01T00:55:07.732Z,100.00
2022-09-01T00:57:34.507Z,100.00
2022-09-01T01:00:11.710Z,100.00
2022-09-01T01:02:41.369Z,100.00
2022-09-01T01:05:14.409Z,100.00
2022-09-01T01:07:47.662Z,100.00
2022-09-01T01:10:17.066Z,100.00
2022-09-01T01:12:44.888Z,100.00
2022-09-01T01:15:13.349Z,100.00
2022-09-01T01:17:40.656Z,100.00
2022-09-01T01:20:27.979Z,100.00
2022-09-01T01:23:15.915Z,100.00
2022-09-01T01:25:46.484Z,100.00
2022-09-01T01:28:15.780Z,100.00
2022-09-01T01:30:52.508Z,100.00
2022-09-01T01:33:34.619Z,100.00
2022-09-01T01:36:01.895Z,100.00
2022-09-01T01:38:30.169Z,100.00
2022-09-01T01:40:57.415Z,100.00
2022-09-01T01:43:26.830Z,100.00
2022-09-01T01:45:59.239Z,100.00
2022-09-01T01:48:26.447Z,100.00
2022-09-01T01:50:55.037Z,100.00
2022-09-01T01:53:22.552Z,100.00
2022-09-01T01:55:49.696Z,100.00
2022-09-01T01:58:21.132Z,100.00
2022-09-01T02:00:49.739Z,100.00
2022-09-01T02:03:20.272Z,100.00
2022-09-01T02:05:49.271Z,100.00
2022-09-01T02:08:22.680Z,100.00
2022-09-01T02:10:51.858Z,100.00
2022-09-01T02:13:21.085Z,100.00
2022-09-01T02:15:53.958Z,100.00
2022-09-01T02:18:27.151Z,100.00
2022-09-01T02:20:55.365Z,100.00
2022-09-01T02:23:25.858Z,100.00
2022-09-01T02:28:45.383Z,100.00
2022-09-01T02:31:12.498Z,100.00
2022-09-01T02:33:44.122Z,100.00
2022-09-01T02:36:15.314Z,100.00
2022-09-01T02:38:45.935Z,100.00
2022-09-01T02:41:14.517Z,100.00
2022-09-01T02:43:43.514Z,100.00
2022-09-01T02:46:10.409Z,100.00
2022-09-01T02:48:39.723Z,100.00
2022-09-01T02:51:10.863Z,100.00
2022-09-01T02:53:39.467Z,100.00
2022-09-01T02:56:12.077Z,100.00
2022-09-01T02:58:46.404Z,100.00
2022-09-01T03:01:22.093Z,100.00
2022-09-01T03:03:49.677Z,100.00
2022-09-01T03:06:18.476Z,100.00
2022-09-01T03:08:45.186Z,100.00
2022-09-01T03:11:13.261Z,100.00
2022-09-01T03:13:41.923Z,100.00
2022-09-01T03:16:09.795Z,100.00
2022-09-01T03:18:37.324Z,100.00
2022-09-01T03:21:06.191Z,100.00
2022-09-01T03:23:34.050Z,100.00
2022-09-01T03:26:02.300Z,100.00
2022-09-01T03:28:29.867Z,100.00
2022-09-01T03:30:58.139Z,100.00
2022-09-01T03:33:26.830Z,100.00
2022-09-01T03:35:54.270Z,100.00
2022-09-01T03:38:24.165Z,100.00
2022-09-01T03:41:02.054Z,100.00
2022-09-01T03:43:35.635Z,100.00
2022-09-01T03:46:03.440Z,100.00
2022-09-01T03:48:34.700Z,100.00
2022-09-01T03:51:04.558Z,100.00
2022-09-01T03:53:35.894Z,100.00
2022-09-01T03:56:05.794Z,100.00
2022-09-01T03:58:33.209Z,100.00
2022-09-01T04:01:03.247Z,100.00
2022-09-01T04:03:34.590Z,100.00
2022-09-01T04:06:04.789Z,100.00
2022-09-01T04:08:32.927Z,100.00
2022-09-01T04:11:24.194Z,100.00
2022-09-01T04:13:51.368Z,100.00
2022-09-01T04:16:40.123Z,100.00
2022-09-01T04:19:16.044Z,100.00
2022-09-01T04:22:03.302Z,100.00
2022-09-01T04:24:32.670Z,100.00
2022-09-01T04:27:02.414Z,100.00
2022-09-01T04:29:31.859Z,100.00
2022-09-01T04:32:05.584Z,100.00
2022-09-01T04:34:39.868Z,100.00
2022-09-01T04:37:09.371Z,100.00
2022-09-01T04:39:37.187Z,100.00
2022-09-01T04:42:09.485Z,100.00
2022-09-01T04:44:37.275Z,100.00
2022-09-01T04:47:03.951Z,100.00
2022-09-01T04:49:33.772Z,100.00
2022-09-01T04:52:00.946Z,100.00
2022-09-01T04:54:27.605Z,100.00
2022-09-01T04:56:55.048Z,100.00
2022-09-01T04:59:24.383Z,100.00
2022-09-01T05:01:54.365Z,100.00
2022-09-01T05:04:27.709Z,100.00
2022-09-01T05:07:01.138Z,100.00
2022-09-01T05:09:35.511Z,100.00
2022-09-01T05:12:12.869Z,100.00
2022-09-01T05:14:47.342Z,100.00
2022-09-01T05:17:14.590Z,100.00
2022-09-01T05:19:45.064Z,100.00
2022-09-01T05:22:13.218Z,100.00
2022-09-01T05:24:42.094Z,100.00
2022-09-01T05:27:12.293Z,100.00
2022-09-01T05:29:41.582Z,100.00
2022-09-01T05:32:12.616Z,100.00
2022-09-01T05:34:42.414Z,100.00
2022-09-01T05:37:09.293Z,100.00
2022-09-01T05:39:38.016Z,100.00
2022-09-01T05:42:09.102Z,100.00
2022-09-01T05:44:36.504Z,100.00
2022-09-01T05:47:03.567Z,100.00
2022-09-01T05:49:32.181Z,100.00
2022-09-01T05:51:59.056Z,100.00
2022-09-01T05:54:28.016Z,100.00
2022-09-01T05:57:08.166Z,100.00
2022-09-01T05:59:45.996Z,100.00
2022-09-01T06:02:12.716Z,100.00
2022-09-01T06:04:44.215Z,100.00
2022-09-01T06:07:16.649Z,100.00
2022-09-01T06:09:48.690Z,100.00
2022-09-01T06:12:23.422Z,100.00
2022-09-01T06:14:53.166Z,100.00
2022-09-01T06:17:24.703Z,100.00
2022-09-01T06:19:53.607Z,100.00
2022-09-01T06:22:20.825Z,100.00
2022-09-01T06:24:54.520Z,100.00
2022-09-01T06:27:23.513Z,100.00
2022-09-01T06:29:53.682Z,100.00
2022-09-01T06:32:20.719Z,100.00
2022-09-01T06:34:51.557Z,100.00
2022-09-01T06:37:22.915Z,100.00
2022-09-01T06:39:50.732Z,100.00
2022-09-01T06:42:17.926Z,100.00
2022-09-01T06:44:45.967Z,100.00
2022-09-01T06:47:13.051Z,100.00
2022-09-01T06:49:41.146Z,100.00
2022-09-01T06:52:08.981Z,100.00
2022-09-01T06:54:36.489Z,100.00
2022-09-01T06:59:52.472Z,100.00
2022-09-01T07:02:20.019Z,100.00
2022-09-01T07:04:52.207Z,100.00
2022-09-01T07:10:18.469Z,100.00
2022-09-01T07:18:27.511Z,100.00
2022-09-01T07:21:38.796Z,100.00
2022-09-01T07:23:46.675Z,100.00
2022-09-01T07:26:27.091Z,100.00
2022-09-01T07:29:01.681Z,100.00
2022-09-01T07:34:46.545Z,100.00
2022-09-01T07:45:30.778Z,100.00
2022-09-01T07:48:03.394Z,100.00
2022-09-01T07:50:41.438Z,100.00
2022-09-01T07:53:32.496Z,100.00
2022-09-01T07:56:07.335Z,100.00
2022-09-01T07:58:33.912Z,100.00
2022-09-01T08:01:02.625Z,100.00
2022-09-01T08:03:30.201Z,100.00
2022-09-01T08:06:06.127Z,100.00
2022-09-01T08:08:35.825Z,100.00
2022-09-01T08:11:04.616Z,100.00
2022-09-01T08:13:40.710Z,100.00
2022-09-01T08:16:16.977Z,100.00
2022-09-01T08:18:49.304Z,100.00
2022-09-01T08:21:18.418Z,100.00
2022-09-01T08:23:45.237Z,100.00
2022-09-01T08:26:14.733Z,100.00
2022-09-01T08:28:45.880Z,100.00
2022-09-01T08:31:17.944Z,100.00
2022-09-01T08:33:49.180Z,100.00
2022-09-01T08:36:20.214Z,100.00
2022-09-01T08:38:51.287Z,100.00
2022-09-01T08:41:28.710Z,100.00
2022-09-01T08:44:22.373Z,100.00
2022-09-01T08:46:52.883Z,100.00
2022-09-01T08:49:26.239Z,100.00
2022-09-01T08:52:07.951Z,100.00
2022-09-01T08:54:34.418Z,100.00
2022-09-01T08:57:05.871Z,100.00
2022-09-01T08:59:32.591Z,100.00
2022-09-01T09:01:59.979Z,100.00
2022-09-01T09:04:51.204Z,100.00
2022-09-01T09:07:29.639Z,100.00
2022-09-01T09:10:05.658Z,100.00
2022-09-01T09:12:51.441Z,100.00
2022-09-01T09:15:33.711Z,100.00
2022-09-01T09:18:20.159Z,100.00
2022-09-01T09:21:14.070Z,100.00
2022-09-01T09:23:45.502Z,100.00
2022-09-01T09:26:16.677Z,100.00
2022-09-01T09:28:50.055Z,100.00
2022-09-01T09:31:36.602Z,100.00
2022-09-01T09:34:04.117Z,100.00
2022-09-01T09:36:36.169Z,100.00
2022-09-01T09:39:14.209Z,100.00
2022-09-01T09:41:41.918Z,100.00
2022-09-01T09:44:11.568Z,100.00
2022-09-01T09:46:43.732Z,100.00
2022-09-01T09:49:35.921Z,100.00
2022-09-01T09:52:03.258Z,100.00
2022-09-01T09:54:34.662Z,100.00
2022-09-01T09:57:13.658Z,100.00
2022-09-01T10:00:03.292Z,100.00
2022-09-01T10:02:39.053Z,100.00
2022-09-01T10:05:30.163Z,100.00
2022-09-01T10:07:57.410Z,100.00
2022-09-01T10:10:34.665Z,100.00
2022-09-01T10:13:02.367Z,100.00
2022-09-01T10:15:32.232Z,100.00
2022-09-01T10:18:29.041Z,100.00
2022-09-01T10:21:02.913Z,100.00
2022-09-01T10:23:33.345Z,100.00
2022-09-01T10:26:09.794Z,100.00
2022-09-01T10:28:50.005Z,100.00
2022-09-01T10:31:17.991Z,100.00
2022-09-01T10:33:45.557Z,100.00
2022-09-01T10:36:14.363Z,100.00
2022-09-01T10:38:46.352Z,100.00
2022-09-01T10:41:59.659Z,100.00
2022-09-01T10:44:56.241Z,100.00
2022-09-01T10:47:29.431Z,100.00
2022-09-01T10:49:59.129Z,100.00
2022-09-01T10:52:41.382Z,100.00
2022-09-01T10:55:27.272Z,100.00
2022-09-01T10:59:30.386Z,100.00
2022-09-01T11:03:56.200Z,100.00
2022-09-01T11:06:42.193Z,100.00
2022-09-01T11:09:26.391Z,100.00
2022-09-01T11:12:16.498Z,100.00
2022-09-01T11:15:06.861Z,100.00
2022-09-01T11:17:37.987Z,100.00
2022-09-01T11:20:22.323Z,100.00
2022-09-01T11:22:59.953Z,100.00
2022-09-01T11:25:39.845Z,100.00
2022-09-01T11:28:06.799Z,100.00
2022-09-01T11:31:01.016Z,100.00
2022-09-01T11:33:53.439Z,100.00
2022-09-01T11:36:32.287Z,100.00
2022-09-01T11:39:30.203Z,100.00
2022-09-01T11:42:14.546Z,100.00
2022-09-01T11:44:59.807Z,100.00
2022-09-01T11:47:34.287Z,100.00
2022-09-01T11:50:04.668Z,100.00
2022-09-01T11:52:36.183Z,100.00
2022-09-01T11:55:05.780Z,100.00
2022-09-01T11:57:35.285Z,100.00
2022-09-01T12:00:07.657Z,100.00
2022-09-01T12:02:36.927Z,100.00
2022-09-01T12:05:24.848Z,100.00
2022-09-01T12:07:51.628Z,100.00
2022-09-01T12:10:29.956Z,100.00
2022-09-01T12:13:15.731Z,100.00
2022-09-01T12:16:07.095Z,100.00
2022-09-01T12:18:47.384Z,100.00
2022-09-01T12:21:38.283Z,100.00
2022-09-01T12:24:23.319Z,100.00
2022-09-01T12:26:54.295Z,100.00
2022-09-01T12:29:23.237Z,100.00
2022-09-01T12:31:52.558Z,100.00
2022-09-01T12:34:50.022Z,100.00
2022-09-01T12:37:16.535Z,100.00
2022-09-01T12:39:46.312Z,100.00
2022-09-01T12:42:27.495Z,100.00
2022-09-01T12:44:58.592Z,100.00
2022-09-01T12:47:34.745Z,100.00
2022-09-01T12:50:06.162Z,100.00
2022-09-01T12:52:35.594Z,100.00
2022-09-01T12:55:03.721Z,100.00
2022-09-01T12:57:34.460Z,100.00
2022-09-01T13:00:21.171Z,100.00
2022-09-01T13:02:49.742Z,100.00
2022-09-01T13:05:41.548Z,100.00
2022-09-01T13:08:14.749Z,100.00
2022-09-01T13:10:44.985Z,100.00
2022-09-01T13:13:12.945Z,100.00
2022-09-01T13:15:45.396Z,100.00
2022-09-01T13:18:12.177Z,100.00
2022-09-01T13:20:38.695Z,100.00
2022-09-01T13:23:05.345Z,100.00
2022-09-01T13:25:31.916Z,100.00
2022-09-01T13:28:00.381Z,100.00
2022-09-01T13:30:28.569Z,100.00
2022-09-01T13:35:42.760Z,100.00
2022-09-01T13:38:09.809Z,100.00
2022-09-01T13:40:36.742Z,100.00
2022-09-01T13:43:06.364Z,100.00
2022-09-01T13:45:33.709Z,100.00
2022-09-01T13:48:17.018Z,100.00
2022-09-01T13:53:37.042Z,100.00
2022-09-01T13:56:04.063Z,100.00
2022-09-01T13:58:30.929Z,100.00
2022-09-01T14:00:59.529Z,100.00
2022-09-01T14:03:26.265Z,100.00
2022-09-01T14:05:54.074Z,100.00
2022-09-01T14:08:22.861Z,100.00
2022-09-01T14:10:51.963Z,100.00
2022-09-01T14:13:23.816Z,100.00
2022-09-01T14:15:53.389Z,100.00
2022-09-01T14:18:21.747Z,100.00
2022-09-01T14:20:51.214Z,100.00
2022-09-01T14:23:19.018Z,100.00
2022-09-01T14:25:48.812Z,100.00
2022-09-01T14:28:16.635Z,100.00
2022-09-01T14:30:47.511Z,100.00
2022-09-01T14:33:14.219Z,100.00
2022-09-01T14:35:43.732Z,100.00
2022-09-01T14:38:11.741Z,100.00
2022-09-01T14:40:39.537Z,100.00
2022-09-01T14:43:09.837Z,100.00
2022-09-01T14:45:39.628Z,100.00
2022-09-01T14:48:09.691Z,100.00
2022-09-01T14:50:41.304Z,100.00
2022-09-01T14:53:08.949Z,100.00
2022-09-01T14:55:35.753Z,100.00
2022-09-01T14:58:02.706Z,100.00
2022-09-01T15:00:31.496Z,100.00
2022-09-01T15:02:58.565Z,100.00
2022-09-01T15:05:25.331Z,100.00
2022-09-01T15:07:53.333Z,100.00
2022-09-01T15:10:25.191Z,100.00
2022-09-01T15:12:53.984Z,100.00
2022-09-01T15:15:21.603Z,100.00
2022-09-01T15:17:48.434Z,100.00
2022-09-01T15:20:33.827Z,100.00
2022-09-01T15:23:01.267Z,100.00
2022-09-01T15:25:28.197Z,100.00
2022-09-01T15:27:54.837Z,100.00
2022-09-01T15:30:21.883Z,100.00
2022-09-01T15:32:51.302Z,100.00
2022-09-01T15:35:19.273Z,100.00
2022-09-01T15:37:48.037Z,100.00
2022-09-01T15:40:15.330Z,100.00
2022-09-01T15:42:43.003Z,100.00
2022-09-01T15:45:13.383Z,100.00
2022-09-01T15:47:44.922Z,100.00
2022-09-01T15:50:18.334Z,100.00
2022-09-01T15:52:51.015Z,100.00
2022-09-01T15:55:20.267Z,100.00
2022-09-01T15:57:47.141Z,100.00
2022-09-01T16:00:15.330Z,100.00
2022-09-01T16:02:42.510Z,100.00
2022-09-01T16:05:10.444Z,100.00
2022-09-01T16:07:36.995Z,100.00
2022-09-01T16:10:06.253Z,100.00
2022-09-01T16:12:35.734Z,100.00
2022-09-01T16:15:05.533Z,100.00
2022-09-01T16:18:05.860Z,100.00
2022-09-01T16:21:11.925Z,100.00
2022-09-01T16:23:46.104Z,100.00
2022-09-01T16:26:13.166Z,100.00
2022-09-01T16:28:45.032Z,100.00
2022-09-01T16:31:21.109Z,100.00
2022-09-01T16:33:56.052Z,97.42
2022-09-01T16:36:49.183Z,94.22
2022-09-01T16:39:54.605Z,96.80
2022-09-01T16:42:36.073Z,92.90
2022-09-01T16:45:44.356Z,99.97
2022-09-01T16:48:25.647Z,99.45
2022-09-01T16:51:01.246Z,95.22
2022-09-01T16:53:48.594Z,93.35
2022-09-01T16:56:32.029Z,91.30
2022-09-01T16:59:11.995Z,93.84
2022-09-01T17:01:52.408Z,90.94
2022-09-01T17:04:36.790Z,89.57
2022-09-01T17:07:08.405Z,90.00
2022-09-01T17:09:41.210Z,92.95
2022-09-01T17:12:37.268Z,95.83
2022-09-01T17:15:17.831Z,95.44
2022-09-01T17:18:23.031Z,92.12
2022-09-01T17:20:58.018Z,91.17
2022-09-01T17:23:28.961Z,92.99
2022-09-01T17:26:01.599Z,91.42
2022-09-01T17:28:43.973Z,95.63
2022-09-01T17:31:22.107Z,93.85
2022-09-01T17:34:07.646Z,92.94
2022-09-01T17:36:48.036Z,91.30
2022-09-01T17:39:18.175Z,94.68
2022-09-01T17:42:02.860Z,99.11
2022-09-01T17:44:35.786Z,100.00
2022-09-01T17:47:11.961Z,100.00
2022-09-01T17:49:53.778Z,100.00
2022-09-01T17:53:10.356Z,100.00
2022-09-01T17:55:40.025Z,100.00
2022-09-01T17:58:21.359Z,100.00
2022-09-01T18:01:26.371Z,100.00
2022-09-01T18:04:14.801Z,100.00
2022-09-01T18:07:38.260Z,100.00
2022-09-01T18:10:08.470Z,100.00
2022-09-01T18:12:37.689Z,100.00
2022-09-01T18:15:10.932Z,100.00
2022-09-01T18:17:45.569Z,100.00
2022-09-01T18:20:26.256Z,100.00
2022-09-01T18:23:05.584Z,100.00
2022-09-01T18:25:40.613Z,100.00
2022-09-01T18:28:07.640Z,100.00
2022-09-01T18:30:59.557Z,100.00
2022-09-01T18:33:32.967Z,100.00
2022-09-01T18:36:17.836Z,100.00
2022-09-01T18:38:55.238Z,100.00
2022-09-01T18:41:21.713Z,100.00
2022-09-01T18:43:54.096Z,100.00
2022-09-01T18:46:35.874Z,100.00
2022-09-01T18:49:09.331Z,100.00
2022-09-01T18:51:51.887Z,100.00
2022-09-01T18:54:27.181Z,100.00
2022-09-01T18:57:06.170Z,100.00
2022-09-01T18:59:52.151Z,100.00
2022-09-01T19:02:27.535Z,100.00
2022-09-01T19:04:59.780Z,100.00
2022-09-01T19:07:45.090Z,100.00
2022-09-01T19:10:24.234Z,100.00
2022-09-01T19:12:56.886Z,100.00
2022-09-01T19:16:13.667Z,100.00
2022-09-01T19:18:48.558Z,100.00
2022-09-01T19:21:27.822Z,100.00
2022-09-01T19:24:10.920Z,100.00
2022-09-01T19:26:47.877Z,100.00
2022-09-01T19:29:24.226Z,100.00
2022-09-01T19:31:57.700Z,100.00
2022-09-01T19:34:32.498Z,100.00
2022-09-01T19:37:02.003Z,100.00
2022-09-01T19:39:36.078Z,100.00
2022-09-01T19:42:20.426Z,100.00
2022-09-01T19:45:24.903Z,100.00
2022-09-01T19:48:11.133Z,100.00
2022-09-01T19:50:44.578Z,100.00
2022-09-01T19:53:40.329Z,100.00
2022-09-01T19:56:10.095Z,100.00
2022-09-01T19:58:48.778Z,100.00
2022-09-01T20:01:21.540Z,100.00
2022-09-01T20:03:57.856Z,100.00
2022-09-01T20:06:33.690Z,100.00
2022-09-01T20:09:14.523Z,100.00
2022-09-01T20:11:47.727Z,100.00
2022-09-01T20:14:48.021Z,100.00
2022-09-01T20:17:22.951Z,100.00
2022-09-01T20:19:57.192Z,100.00
2022-09-01T20:22:31.138Z,100.00
2022-09-01T20:25:09.779Z,100.00
2022-09-01T20:27:51.135Z,100.00
2022-09-01T20:30:27.505Z,100.00
2022-09-01T20:33:10.690Z,100.00
2022-09-01T20:36:04.068Z,100.00
2022-09-01T20:38:55.473Z,100.00
2022-09-01T20:41:43.301Z,100.00
2022-09-01T20:44:27.545Z,100.00
2022-09-01T20:46:54.278Z,100.00
2022-09-01T20:49:22.326Z,100.00
2022-09-01T20:52:01.134Z,100.00
2022-09-01T20:54:50.162Z,100.00
2022-09-01T20:57:35.204Z,100.00
2022-09-01T21:00:18.582Z,100.00
2022-09-01T21:03:06.046Z,100.00
2022-09-01T21:05:55.206Z,100.00
2022-09-01T21:08:43.262Z,100.00
2022-09-01T21:11:15.970Z,100.00
2022-09-01T21:13:49.134Z,100.00
2022-09-01T21:16:26.602Z,100.00
2022-09-01T21:19:05.446Z,100.00
2022-09-01T21:21:38.422Z,100.00
2022-09-01T21:24:05.615Z,100.00
2022-09-01T21:26:36.434Z,100.00
2022-09-01T21:29:18.579Z,100.00
2022-09-01T21:31:46.924Z,100.00
2022-09-01T21:34:16.849Z,100.00
2022-09-01T21:36:43.718Z,100.00
2022-09-01T21:39:10.304Z,100.00
2022-09-01T21:41:39.186Z,100.00
2022-09-01T21:44:06.192Z,100.00
2022-09-01T21:46:32.956Z,100.00
2022-09-01T21:48:59.850Z,100.00
2022-09-01T21:51:26.849Z,100.00
2022-09-01T21:53:53.389Z,100.00
2022-09-01T21:56:20.043Z,100.00
2022-09-01T21:58:52.544Z,100.00
2022-09-01T22:01:19.106Z,100.00
2022-09-01T22:03:45.705Z,100.00
2022-09-01T22:06:12.847Z,100.00
2022-09-01T22:08:39.640Z,100.00
2022-09-01T22:11:10.126Z,100.00
2022-09-01T22:13:36.888Z,100.00
2022-09-01T22:16:03.780Z,100.00
2022-09-01T22:18:30.641Z,100.00
2022-09-01T22:21:09.671Z,100.00
2022-09-01T22:23:37.850Z,100.00
2022-09-01T22:26:05.399Z,100.00
2022-09-01T22:28:32.455Z,100.00
2022-09-01T22:30:59.759Z,100.00
2022-09-01T22:33:26.415Z,100.00
2022-09-01T22:35:56.560Z,100.00
2022-09-01T22:38:23.712Z,100.00
2022-09-01T22:40:59.552Z,100.00
2022-09-01T22:43:27.720Z,100.00
2022-09-01T22:45:55.600Z,100.00
2022-09-01T22:48:24.888Z,100.00
2022-09-01T22:50:52.528Z,100.00
2022-09-01T22:53:21.525Z,100.00
2022-09-01T22:55:50.651Z,100.00
2022-09-01T22:58:18.416Z,100.00
2022-09-01T23:00:48.807Z,100.00
2022-09-01T23:03:16.663Z,100.00
2022-09-01T23:05:44.454Z,100.00
2022-09-01T23:08:11.786Z,100.00
2022-09-01T23:10:39.277Z,100.00
2022-09-01T23:13:06.245Z,100.00
2022-09-01T23:15:33.729Z,100.00
2022-09-01T23:18:00.354Z,100.00
2022-09-01T23:20:27.710Z,100.00
2022-09-01T23:22:54.343Z,100.00
2022-09-01T23:25:21.144Z,100.00
2022-09-01T23:27:47.806Z,100.00
2022-09-01T23:30:15.462Z,100.00
2022-09-01T23:32:42.414Z,100.00
2022-09-01T23:35:09.725Z,100.00
2022-09-01T23:37:36.424Z,100.00
2022-09-01T23:40:04.828Z,100.00
2022-09-01T23:42:31.410Z,100.00
2022-09-01T23:44:57.950Z,100.00
2022-09-01T23:47:24.515Z,100.00
2022-09-01T23:49:51.068Z,100.00
2022-09-01T23:52:17.638Z,100.00
2022-09-01T23:54:44.242Z,100.00
2022-09-01T23:57:11.840Z,100.00
2022-09-01T23:59:38.476Z,100.00
